createdAt,value
2018-09-08T00:01:43.134Z,4.00
2018-09-08T00:04:12.514Z,4.27
2018-09-08T00:06:41.984Z,3.83
2018-09-08T00:09:11.479Z,4.33
2018-09-08T00:11:40.946Z,4.07
2018-09-08T00:14:10.328Z,5.40
2018-09-08T00:16:44.778Z,4.07
2018-09-08T00:19:19.518Z,3.70
2018-09-08T00:21:54.148Z,4.13
2018-09-08T00:24:28.898Z,4.33
2018-09-08T00:26:57.239Z,4.60
2018-09-08T00:29:46.601Z,4.60
2018-09-08T00:32:16.339Z,4.17
2018-09-08T00:34:45.620Z,4.37
2018-09-08T00:37:15.024Z,6.00
2018-09-08T00:39:45.318Z,4.63
2018-09-08T00:42:14.668Z,4.17
2018-09-08T00:44:44.118Z,4.80
2018-09-08T00:47:13.549Z,4.83
2018-09-08T00:49:44.046Z,5.00
2018-09-08T00:52:13.464Z,4.80
2018-09-08T00:54:42.882Z,5.20
2018-09-08T00:57:12.301Z,5.43
2018-09-08T00:59:43.771Z,5.40
2018-09-08T01:02:13.172Z,4.57
2018-09-08T01:04:42.545Z,4.80
2018-09-08T01:07:17.096Z,6.33
2018-09-08T01:09:54.173Z,5.30
2018-09-08T01:12:23.591Z,5.07
2018-09-08T01:14:53.007Z,4.87
2018-09-08T01:17:22.453Z,7.57
2018-09-08T01:19:56.249Z,4.60
2018-09-08T01:22:33.534Z,4.10
2018-09-08T01:25:02.629Z,4.20
2018-09-08T01:27:31.793Z,4.73
2018-09-08T01:30:05.605Z,4.63
2018-09-08T01:32:34.764Z,5.23
2018-09-08T01:35:03.641Z,4.83
2018-09-08T01:37:32.481Z,7.70
2018-09-08T01:40:10.219Z,6.43
2018-09-08T01:42:39.390Z,5.37
2018-09-08T01:45:08.831Z,4.77
2018-09-08T01:47:37.916Z,5.93
2018-09-08T01:50:07.150Z,6.30
2018-09-08T01:52:36.308Z,6.47
2018-09-08T01:55:05.427Z,5.90
2018-09-08T01:57:34.540Z,7.47
2018-09-08T02:00:04.656Z,5.47
2018-09-08T02:02:33.523Z,6.30
2018-09-08T02:05:02.340Z,5.97
2018-09-08T02:07:31.480Z,5.53
2018-09-08T02:10:01.574Z,7.33
2018-09-08T02:12:30.717Z,6.17
2018-09-08T02:15:00.091Z,5.90
2018-09-08T02:17:29.469Z,5.63
2018-09-08T02:19:59.969Z,5.20
2018-09-08T02:22:29.376Z,5.57
2018-09-08T02:24:58.766Z,5.43
2018-09-08T02:27:28.146Z,5.47
2018-09-08T02:29:59.584Z,5.47
2018-09-08T02:32:28.971Z,4.50
2018-09-08T02:34:58.376Z,4.53
2018-09-08T02:37:27.893Z,6.03
2018-09-08T02:40:22.358Z,4.73
2018-09-08T02:42:51.878Z,4.37
2018-09-08T02:45:21.214Z,4.27
2018-09-08T02:47:50.412Z,7.07
2018-09-08T02:50:38.156Z,4.37
2018-09-08T02:55:34.707Z,4.83
2018-09-08T02:58:02.320Z,4.43
2018-09-08T03:00:33.637Z,4.70
2018-09-08T03:03:02.539Z,4.63
2018-09-08T03:05:30.109Z,5.00
2018-09-08T03:07:57.715Z,4.80
2018-09-08T03:10:26.449Z,8.80
2018-09-08T03:12:54.299Z,5.00
2018-09-08T03:15:21.869Z,5.10
2018-09-08T03:17:49.464Z,4.80
2018-09-08T03:20:28.305Z,5.83
2018-09-08T03:22:56.959Z,5.23
2018-09-08T03:25:24.797Z,4.70
2018-09-08T03:27:52.640Z,4.97
2018-09-08T03:30:21.080Z,4.70
2018-09-08T03:32:48.907Z,4.73
2018-09-08T03:35:17.828Z,5.00
2018-09-08T03:37:46.800Z,4.77
2018-09-08T03:40:17.452Z,4.73
2018-09-08T03:42:45.138Z,5.00
2018-09-08T03:45:13.059Z,4.80
2018-09-08T03:47:40.753Z,5.10
2018-09-08T03:50:12.697Z,5.03
2018-09-08T03:52:40.691Z,5.17
2018-09-08T03:55:08.698Z,5.17
2018-09-08T03:57:36.625Z,5.97
2018-09-08T04:00:14.316Z,5.27
2018-09-08T04:02:48.068Z,4.87
2018-09-08T04:05:20.382Z,4.70
2018-09-08T04:07:49.469Z,5.17
2018-09-08T04:10:48.804Z,5.10
2018-09-08T04:13:17.809Z,5.10
2018-09-08T04:15:46.837Z,4.83
2018-09-08T04:18:16.202Z,5.30
2018-09-08T04:20:45.240Z,5.30
2018-09-08T04:23:14.361Z,5.57
2018-09-08T04:25:43.406Z,5.33
2018-09-08T04:28:12.541Z,5.50
2018-09-08T04:30:47.032Z,8.67
2018-09-08T04:33:16.996Z,5.37
2018-09-08T04:35:46.029Z,5.83
2018-09-08T04:38:15.180Z,5.60
2018-09-08T04:40:46.245Z,5.77
2018-09-08T04:43:15.341Z,4.93
2018-09-08T04:45:44.412Z,5.27
2018-09-08T04:48:13.588Z,7.03
2018-09-08T04:50:43.950Z,5.03
2018-09-08T04:53:13.012Z,4.47
2018-09-08T04:55:42.099Z,5.50
2018-09-08T04:58:11.221Z,4.63
2018-09-08T05:00:41.316Z,4.80
2018-09-08T05:03:10.461Z,4.90
2018-09-08T05:05:39.556Z,5.00
2018-09-08T05:08:08.656Z,5.83
2018-09-08T05:10:37.885Z,5.07
2018-09-08T05:13:07.049Z,7.13
2018-09-08T05:15:36.116Z,5.43
2018-09-08T05:18:05.209Z,7.97
2018-09-08T05:20:36.396Z,5.57
2018-09-08T05:23:05.476Z,5.93
2018-09-08T05:25:34.533Z,5.23
2018-09-08T05:28:03.641Z,6.23
2018-09-08T05:30:33.077Z,5.50
2018-09-08T05:33:02.206Z,5.47
2018-09-08T05:35:31.279Z,5.37
2018-09-08T05:38:00.348Z,5.80
2018-09-08T05:40:29.524Z,7.23
2018-09-08T05:42:58.696Z,8.20
2018-09-08T05:45:27.721Z,6.23
2018-09-08T05:47:56.797Z,5.97
2018-09-08T05:50:29.137Z,5.40
2018-09-08T05:53:02.074Z,5.20
2018-09-08T05:55:31.579Z,5.53
2018-09-08T05:58:00.949Z,5.90
2018-09-08T06:00:43.201Z,5.67
2018-09-08T06:03:14.724Z,5.50
2018-09-08T06:05:44.070Z,6.07
2018-09-08T06:08:13.414Z,5.63
2018-09-08T06:10:47.439Z,5.60
2018-09-08T06:13:16.853Z,5.83
2018-09-08T06:15:46.333Z,5.47
2018-09-08T06:18:15.840Z,5.83
2018-09-08T06:20:53.290Z,6.37
2018-09-08T06:23:22.578Z,6.83
2018-09-08T06:25:51.986Z,7.50
2018-09-08T06:28:21.115Z,6.00
2018-09-08T06:30:50.257Z,5.57
2018-09-08T06:33:19.381Z,7.23
2018-09-08T06:35:48.673Z,5.57
2018-09-08T06:38:17.758Z,5.17
2018-09-08T06:40:46.824Z,5.57
2018-09-08T06:43:15.930Z,5.53
2018-09-08T06:45:44.958Z,5.97
2018-09-08T06:48:14.229Z,5.70
2018-09-08T06:50:49.676Z,6.60
2018-09-08T06:53:19.025Z,8.27
2018-09-08T06:55:48.430Z,6.70
2018-09-08T06:58:17.745Z,6.73
2018-09-08T07:00:47.163Z,6.33
2018-09-08T07:03:16.608Z,6.90
2018-09-08T07:05:45.937Z,8.13
2018-09-08T07:08:15.234Z,8.03
2018-09-08T07:10:44.569Z,8.20
2018-09-08T07:13:13.880Z,6.63
2018-09-08T07:15:43.224Z,6.67
2018-09-08T07:18:12.494Z,7.27
2018-09-08T07:20:49.015Z,8.53
2018-09-08T07:23:18.377Z,7.00
2018-09-08T07:25:47.800Z,7.50
2018-09-08T07:28:17.260Z,7.77
2018-09-08T07:30:48.589Z,8.00
2018-09-08T07:33:17.969Z,8.50
2018-09-08T07:35:47.305Z,8.00
2018-09-08T07:38:16.740Z,8.27
2018-09-08T07:40:47.144Z,7.80
2018-09-08T07:43:16.457Z,8.07
2018-09-08T07:45:45.844Z,7.87
2018-09-08T07:48:15.342Z,7.90
2018-09-08T07:50:52.025Z,7.77
2018-09-08T07:53:21.559Z,7.30
2018-09-08T07:55:50.861Z,9.03
2018-09-08T07:58:20.307Z,7.73
2018-09-08T08:00:49.699Z,8.00
2018-09-08T08:03:19.150Z,8.17
2018-09-08T08:05:48.596Z,8.17
2018-09-08T08:08:18.315Z,8.63
2018-09-08T08:10:47.738Z,7.93
2018-09-08T08:13:17.045Z,7.73
2018-09-08T08:15:46.500Z,8.00
2018-09-08T08:18:15.828Z,6.70
2018-09-08T08:20:52.541Z,8.13
2018-09-08T08:23:22.745Z,7.50
2018-09-08T08:25:52.152Z,7.43
2018-09-08T08:28:21.501Z,7.97
2018-09-08T08:30:50.945Z,6.70
2018-09-08T08:33:20.363Z,7.37
2018-09-08T08:35:49.778Z,7.87
2018-09-08T08:38:19.153Z,5.70
2018-09-08T08:40:48.570Z,6.53
2018-09-08T08:43:18.116Z,5.10
2018-09-08T08:45:47.444Z,4.57
2018-09-08T08:48:16.897Z,4.40
2018-09-08T08:51:07.676Z,4.70
2018-09-08T08:53:54.090Z,4.50
2018-09-08T08:56:23.509Z,4.30
2018-09-08T08:58:53.926Z,5.20
2018-09-08T09:01:23.342Z,4.47
2018-09-08T09:03:52.793Z,3.87
2018-09-08T09:06:22.236Z,3.50
2018-09-08T09:08:55.010Z,6.37
2018-09-08T09:11:24.472Z,5.07
2018-09-08T09:13:53.795Z,4.07
2018-09-08T09:16:23.206Z,4.67
2018-09-08T09:19:37.835Z,4.90
2018-09-08T09:22:25.584Z,4.33
2018-09-08T09:25:16.061Z,3.73
2018-09-08T09:27:46.786Z,4.40
2018-09-08T09:30:24.885Z,4.50
2018-09-08T09:32:54.335Z,3.50
2018-09-08T09:35:23.966Z,5.17
2018-09-08T09:37:53.311Z,4.47
2018-09-08T09:40:23.621Z,3.63
2018-09-08T09:42:53.061Z,4.03
2018-09-08T09:45:22.374Z,3.30
2018-09-08T09:47:51.765Z,3.97
2018-09-08T09:50:38.330Z,5.27
2018-09-08T09:53:07.752Z,3.07
2018-09-08T09:55:37.070Z,3.20
2018-09-08T09:58:06.476Z,2.80
2018-09-08T10:00:41.079Z,3.23
2018-09-08T10:03:10.917Z,3.80
2018-09-08T10:05:40.231Z,2.87
2018-09-08T10:08:09.713Z,3.03
2018-09-08T10:10:43.732Z,3.70
2018-09-08T10:13:13.150Z,4.77
2018-09-08T10:15:42.542Z,4.10
2018-09-08T10:18:11.938Z,4.03
2018-09-08T10:20:42.440Z,3.37
2018-09-08T10:23:11.951Z,4.17
2018-09-08T10:25:41.433Z,3.22
2018-09-08T10:28:10.866Z,3.42
2018-09-08T10:30:41.068Z,4.60
2018-09-08T10:33:10.197Z,4.58
2018-09-08T10:35:39.280Z,2.70
2018-09-08T10:38:08.376Z,2.50
2018-09-08T10:40:39.722Z,2.72
2018-09-08T10:43:08.894Z,2.90
2018-09-08T10:45:37.996Z,2.90
2018-09-08T10:48:07.133Z,3.27
2018-09-08T10:50:40.729Z,2.58
2018-09-08T10:53:09.901Z,3.50
2018-09-08T10:55:39.036Z,2.60
2018-09-08T10:58:08.134Z,8.53
2018-09-08T11:00:37.276Z,3.52
2018-09-08T11:03:06.420Z,2.92
2018-09-08T11:05:35.500Z,2.98
2018-09-08T11:08:04.596Z,2.70
2018-09-08T11:10:41.559Z,3.27
2018-09-08T11:13:10.679Z,3.05
2018-09-08T11:15:39.814Z,2.33
2018-09-08T11:18:09.129Z,3.02
2018-09-08T11:20:44.041Z,2.65
2018-09-08T11:23:13.429Z,2.92
2018-09-08T11:25:42.861Z,2.33
2018-09-08T11:28:12.201Z,2.95
2018-09-08T11:30:41.643Z,2.60
2018-09-08T11:33:10.922Z,4.15
2018-09-08T11:35:40.291Z,1.87
2018-09-08T11:38:09.796Z,1.98
2018-09-08T11:40:40.251Z,1.52
2018-09-08T11:43:09.713Z,1.90
2018-09-08T11:45:39.131Z,2.10
2018-09-08T11:48:08.622Z,2.50
2018-09-08T11:50:41.606Z,2.25
2018-09-08T11:53:10.937Z,2.62
2018-09-08T11:55:40.481Z,3.02
2018-09-08T11:58:09.759Z,2.00
2018-09-08T12:00:39.146Z,2.08
2018-09-08T12:03:08.745Z,2.30
2018-09-08T12:05:38.189Z,3.15
2018-09-08T12:08:07.310Z,2.12
2018-09-08T12:10:36.789Z,3.70
2018-09-08T12:13:06.102Z,2.10
2018-09-08T12:15:35.497Z,1.85
2018-09-08T12:18:04.973Z,1.70
2018-09-08T12:20:36.507Z,2.35
2018-09-08T12:23:05.996Z,2.77
2018-09-08T12:25:35.081Z,2.25
2018-09-08T12:28:04.370Z,3.33
2018-09-08T12:30:35.945Z,2.30
2018-09-08T12:33:05.131Z,2.20
2018-09-08T12:35:34.576Z,2.45
2018-09-08T12:38:03.945Z,2.70
2018-09-08T12:40:34.186Z,1.70
2018-09-08T12:43:03.368Z,1.90
2018-09-08T12:45:32.757Z,1.98
2018-09-08T12:48:02.206Z,1.55
2018-09-08T12:50:33.666Z,1.90
2018-09-08T12:53:03.081Z,1.92
2018-09-08T12:55:32.466Z,2.80
2018-09-08T12:58:01.948Z,1.82
2018-09-08T13:00:31.476Z,2.83
2018-09-08T13:03:00.889Z,3.02
2018-09-08T13:05:30.036Z,1.98
2018-09-08T13:07:59.165Z,2.67
2018-09-08T13:10:37.885Z,1.80
2018-09-08T13:13:07.047Z,3.15
2018-09-08T13:15:36.138Z,1.32
2018-09-08T13:18:05.256Z,1.65
2018-09-08T13:21:05.262Z,1.70
2018-09-08T13:23:34.120Z,1.35
2018-09-08T13:26:03.262Z,3.77
2018-09-08T13:28:33.503Z,2.35
2018-09-08T13:31:02.355Z,3.67
2018-09-08T13:33:31.442Z,1.62
2018-09-08T13:36:00.553Z,1.92
2018-09-08T13:38:29.404Z,1.52
2018-09-08T13:40:59.635Z,1.35
2018-09-08T13:43:28.828Z,1.27
2018-09-08T13:45:57.940Z,1.42
2018-09-08T13:48:27.223Z,4.67
2018-09-08T13:50:56.631Z,4.03
2018-09-08T13:53:26.187Z,3.27
2018-09-08T13:55:55.281Z,4.35
2018-09-08T13:58:24.711Z,1.55
2018-09-08T14:00:53.807Z,1.05
2018-09-08T14:03:23.244Z,1.85
2018-09-08T14:05:52.710Z,2.20
2018-09-08T14:08:22.111Z,3.65
2018-09-08T14:10:51.519Z,1.37
2018-09-08T14:13:20.580Z,1.27
2018-09-08T14:15:59.946Z,1.20
2018-09-08T14:18:29.328Z,1.62
2018-09-08T14:20:58.657Z,2.33
2018-09-08T14:23:28.101Z,1.57
2018-09-08T14:25:57.171Z,1.50
2018-09-08T14:28:26.317Z,2.95
2018-09-08T14:30:55.385Z,2.80
2018-09-08T14:33:24.480Z,1.47
2018-09-08T14:35:54.280Z,1.70
2018-09-08T14:38:23.822Z,1.10
2018-09-08T14:40:52.925Z,2.33
2018-09-08T14:43:22.282Z,3.02
2018-09-08T14:45:51.694Z,1.60
2018-09-08T14:48:21.118Z,2.35
2018-09-08T14:50:50.206Z,1.42
2018-09-08T14:53:19.593Z,2.05
2018-09-08T14:55:49.034Z,2.45
2018-09-08T14:58:18.081Z,2.05
2018-09-08T15:00:47.433Z,1.57
2018-09-08T15:03:16.887Z,1.47
2018-09-08T15:05:45.916Z,1.40
2018-09-08T15:08:14.987Z,2.42
2018-09-08T15:10:49.334Z,1.32
2018-09-08T15:13:18.713Z,2.27
2018-09-08T15:15:47.829Z,1.40
2018-09-08T15:18:16.865Z,1.32
2018-09-08T15:20:51.621Z,2.62
2018-09-08T15:23:21.110Z,1.67
2018-09-08T15:25:50.485Z,6.05
2018-09-08T15:28:19.915Z,3.08
2018-09-08T15:30:49.242Z,2.05
2018-09-08T15:33:18.653Z,5.28
2018-09-08T15:35:48.082Z,1.52
2018-09-08T15:38:17.456Z,1.30
2018-09-08T15:40:46.884Z,1.77
2018-09-08T15:43:16.627Z,2.15
2018-09-08T15:45:46.072Z,1.40
2018-09-08T15:48:15.457Z,1.47
2018-09-08T15:50:44.737Z,5.20
2018-09-08T15:53:13.852Z,2.00
2018-09-08T15:55:43.078Z,1.42
2018-09-08T15:58:12.233Z,1.75
2018-09-08T16:00:42.493Z,1.07
2018-09-08T16:03:11.709Z,1.10
2018-09-08T16:05:40.974Z,1.25
2018-09-08T16:08:10.377Z,1.65
2018-09-08T16:11:14.372Z,2.30
2018-09-08T16:13:43.372Z,2.00
2018-09-08T16:16:12.449Z,3.10
2018-09-08T16:18:42.871Z,1.92
2018-09-08T16:21:12.186Z,1.77
2018-09-08T16:23:41.622Z,1.10
2018-09-08T16:26:11.001Z,2.67
2018-09-08T16:28:40.091Z,1.77
2018-09-08T16:31:09.140Z,2.35
2018-09-08T16:33:38.137Z,2.25
2018-09-08T16:36:07.249Z,3.35
2018-09-08T16:38:43.515Z,1.50
2018-09-08T16:41:12.316Z,5.03
2018-09-08T16:43:41.452Z,2.33
2018-09-08T16:46:10.545Z,1.60
2018-09-08T16:48:44.024Z,2.58
2018-09-08T16:51:13.228Z,2.08
2018-09-08T16:53:42.530Z,1.42
2018-09-08T16:56:11.939Z,1.35
2018-09-08T16:58:46.287Z,1.15
2018-09-08T17:01:15.438Z,1.30
2018-09-08T17:03:44.934Z,1.35
2018-09-08T17:06:14.370Z,1.47
2018-09-08T17:08:43.509Z,2.10
2018-09-08T17:11:12.952Z,4.63
2018-09-08T17:13:42.028Z,1.57
2018-09-08T17:16:11.381Z,1.67
2018-09-08T17:18:40.802Z,1.40
2018-09-08T17:21:10.228Z,1.70
2018-09-08T17:23:39.658Z,2.37
2018-09-08T17:26:09.085Z,3.70
2018-09-08T17:29:02.567Z,1.67
2018-09-08T17:31:32.053Z,1.20
2018-09-08T17:34:01.461Z,1.53
2018-09-08T17:36:30.909Z,1.67
2018-09-08T17:39:11.401Z,2.97
2018-09-08T17:41:40.857Z,3.57
2018-09-08T17:44:10.338Z,1.57
2018-09-08T17:46:39.878Z,1.70
2018-09-08T17:49:10.317Z,1.57
2018-09-08T17:51:39.793Z,2.47
2018-09-08T17:54:09.217Z,1.30
2018-09-08T17:56:38.333Z,1.97
2018-09-08T17:59:12.579Z,2.10
2018-09-08T18:01:41.849Z,1.70
2018-09-08T18:04:11.003Z,3.23
2018-09-08T18:06:39.835Z,1.83
2018-09-08T18:09:22.089Z,1.47
2018-09-08T18:11:50.991Z,1.47
2018-09-08T18:14:20.045Z,1.80
2018-09-08T18:16:49.212Z,1.93
2018-09-08T18:19:23.040Z,1.67
2018-09-08T18:21:52.140Z,3.80
2018-09-08T18:24:21.298Z,1.57
2018-09-08T18:26:50.697Z,2.03
2018-09-08T18:29:21.285Z,4.63
2018-09-08T18:31:50.808Z,2.70
2018-09-08T18:34:20.229Z,2.00
2018-09-08T18:36:49.704Z,1.90
2018-09-08T18:39:19.167Z,3.17
2018-09-08T18:41:48.541Z,1.73
2018-09-08T18:44:18.027Z,2.20
2018-09-08T18:46:47.710Z,2.17
2018-09-08T18:49:19.100Z,1.63
2018-09-08T18:51:48.267Z,4.60
2018-09-08T18:54:17.727Z,2.40
2018-09-08T18:56:46.921Z,5.00
2018-09-08T18:59:16.795Z,1.63
2018-09-08T19:01:45.944Z,2.23
2018-09-08T19:04:15.021Z,2.83
2018-09-08T19:06:44.256Z,7.30
2018-09-08T19:09:28.788Z,5.03
2018-09-08T19:11:58.138Z,5.53
2018-09-08T19:14:32.597Z,11.70
2018-09-08T19:17:01.908Z,2.13
2018-09-08T19:19:31.490Z,3.53
2018-09-08T19:22:00.911Z,6.13
2018-09-08T19:24:45.718Z,8.10
2018-09-08T19:27:15.117Z,3.83
2018-09-08T19:30:06.611Z,5.73
2018-09-08T19:32:36.046Z,4.07
2018-09-08T19:35:10.685Z,5.97
2018-09-08T19:37:40.019Z,4.30
2018-09-08T19:40:16.728Z,3.40
2018-09-08T19:42:46.112Z,7.57
2018-09-08T19:45:15.446Z,4.57
2018-09-08T19:47:50.008Z,7.70
2018-09-08T19:50:26.818Z,7.63
2018-09-08T19:53:01.129Z,5.17
2018-09-08T19:55:30.625Z,6.37
2018-09-08T19:58:04.981Z,8.80
2018-09-08T20:00:37.654Z,3.57
2018-09-08T20:03:06.860Z,5.20
2018-09-08T20:05:36.240Z,2.73
2018-09-08T20:08:05.669Z,3.20
2018-09-08T20:10:48.303Z,10.80
2018-09-08T20:13:17.772Z,5.30
2018-09-08T20:16:06.045Z,3.03
2018-09-08T20:18:37.541Z,3.67
2018-09-08T20:21:07.007Z,6.47
2018-09-08T20:23:36.404Z,4.57
2018-09-08T20:26:05.838Z,5.30
2018-09-08T20:28:39.737Z,3.33
2018-09-08T20:31:09.133Z,3.50
2018-09-08T20:33:38.472Z,6.10
2018-09-08T20:36:07.882Z,2.80
2018-09-08T20:38:47.490Z,3.00
2018-09-08T20:41:16.884Z,2.83
2018-09-08T20:43:45.928Z,5.90
2018-09-08T20:46:15.021Z,4.03
2018-09-08T20:49:02.230Z,2.87
2018-09-08T20:51:31.601Z,2.67
2018-09-08T20:54:00.978Z,4.13
2018-09-08T20:56:30.336Z,2.87
2018-09-08T20:59:04.768Z,8.17
2018-09-08T21:01:34.125Z,2.37
2018-09-08T21:04:03.456Z,2.10
2018-09-08T21:06:32.928Z,2.57
2018-09-08T21:09:27.514Z,3.93
2018-09-08T21:11:57.147Z,2.70
2018-09-08T21:14:26.469Z,4.87
2018-09-08T21:16:55.792Z,2.90
2018-09-08T21:19:33.604Z,2.40
2018-09-08T21:22:02.902Z,2.43
2018-09-08T21:24:32.213Z,3.13
2018-09-08T21:27:01.633Z,2.97
2018-09-08T21:29:31.041Z,3.90
2018-09-08T21:32:00.447Z,4.10
2018-09-08T21:34:29.851Z,3.30
2018-09-08T21:36:59.190Z,3.40
2018-09-08T21:39:30.688Z,3.37
2018-09-08T21:41:59.773Z,2.73
2018-09-08T21:44:29.142Z,2.67
2018-09-08T21:46:58.477Z,2.67
2018-09-08T21:50:02.572Z,3.20
2018-09-08T21:52:31.971Z,4.27
2018-09-08T21:55:01.355Z,2.90
2018-09-08T21:57:30.737Z,3.67
2018-09-08T22:00:01.294Z,3.00
2018-09-08T22:02:30.474Z,3.53
2018-09-08T22:04:59.580Z,3.33
2018-09-08T22:07:28.777Z,3.00
2018-09-08T22:09:58.945Z,3.50
2018-09-08T22:12:28.075Z,3.87
2018-09-08T22:14:57.181Z,3.60
2018-09-08T22:17:26.276Z,3.13
2018-09-08T22:20:03.376Z,3.80
2018-09-08T22:22:32.481Z,3.30
2018-09-08T22:25:01.567Z,3.50
2018-09-08T22:27:30.685Z,3.20
2018-09-08T22:30:01.853Z,4.87
2018-09-08T22:32:30.945Z,3.27
2018-09-08T22:35:00.038Z,3.53
2018-09-08T22:37:29.160Z,3.90
2018-09-08T22:40:00.584Z,3.77
2018-09-08T22:42:29.999Z,3.10
2018-09-08T22:44:59.332Z,4.03
2018-09-08T22:47:28.844Z,3.67
2018-09-08T22:50:00.444Z,3.13
2018-09-08T22:52:29.780Z,4.53
2018-09-08T22:54:59.149Z,4.13
2018-09-08T22:57:28.588Z,3.27
2018-09-08T23:00:05.346Z,3.30
2018-09-08T23:02:34.815Z,2.73
2018-09-08T23:05:04.242Z,3.43
2018-09-08T23:07:33.649Z,3.20
2018-09-08T23:10:20.186Z,3.83
2018-09-08T23:12:49.653Z,4.13
2018-09-08T23:15:19.892Z,3.43
2018-09-08T23:17:49.448Z,3.63
2018-09-08T23:20:26.553Z,4.87
2018-09-08T23:22:55.918Z,3.53
2018-09-08T23:25:25.306Z,3.83
2018-09-08T23:27:54.425Z,3.80
2018-09-08T23:30:23.789Z,3.20
2018-09-08T23:32:53.233Z,4.03
2018-09-08T23:35:22.670Z,4.87
2018-09-08T23:37:52.134Z,3.40
2018-09-08T23:40:21.532Z,3.10
2018-09-08T23:42:50.880Z,3.30
2018-09-08T23:45:20.234Z,3.80
2018-09-08T23:47:49.698Z,3.20
2018-09-08T23:50:24.341Z,3.63
2018-09-08T23:52:53.685Z,4.63
2018-09-08T23:55:23.045Z,3.40
2018-09-08T23:57:52.449Z,3.10
